Time;durP1;ratioP1;P1;durP2;ratioP2;P2;SDS_P1;SDS_P2;PMS_P1;PMS_P2;Temp;Humidity;BMP_temperature;BMP_pressure;BME280_temperature;BME280_humidity;BME280_pressure;Samples;Min_cycle;Max_cycle;Signal;HPM_P1;HPM_P2
2023/05/29 00:02:07;;;;;;;4.87;4.30;;;17.20;98.10;;;;;;4994116;28;20173;-73
2023/05/29 00:04:33;;;;;;;8.17;4.80;;;17.20;98.10;;;;;;4993538;28;20192;-73
2023/05/29 00:06:58;;;;;;;7.20;4.87;;;17.20;98.20;;;;;;4993539;28;20623;-73
2023/05/29 00:09:25;;;;;;;5.90;4.40;;;17.30;98.30;;;;;;4993124;28;20594;-74
2023/05/29 00:11:52;;;;;;;5.50;4.87;;;17.30;97.90;;;;;;4993549;28;20164;-73
2023/05/29 00:14:19;;;;;;;6.00;4.70;;;17.30;98.10;;;;;;4993890;28;20898;-73
2023/05/29 00:16:46;;;;;;;5.80;4.63;;;17.20;98.50;;;;;;4993727;28;20414;-73
2023/05/29 00:19:13;;;;;;;9.67;5.50;;;17.20;98.20;;;;;;4992044;28;20450;-73
2023/05/29 00:21:40;;;;;;;5.10;4.60;;;17.20;98.20;;;;;;5014181;28;20439;-73
2023/05/29 00:24:05;;;;;;;7.70;5.13;;;17.10;98.40;;;;;;5012728;28;20953;-73
2023/05/29 00:26:31;;;;;;;7.20;5.30;;;17.10;98.70;;;;;;5012945;28;20460;-73
2023/05/29 00:28:57;;;;;;;6.00;5.30;;;17.00;98.40;;;;;;5012902;28;20211;-73
2023/05/29 00:31:24;;;;;;;6.40;4.90;;;17.00;98.70;;;;;;4996637;28;20268;-73
2023/05/29 00:33:49;;;;;;;5.30;4.80;;;16.90;99.10;;;;;;4992142;28;20184;-73
2023/05/29 00:36:16;;;;;;;6.80;5.20;;;16.80;99.40;;;;;;4993622;28;20545;-73
2023/05/29 00:38:41;;;;;;;7.03;5.60;;;16.70;99.60;;;;;;4991834;28;20200;-73
2023/05/29 00:41:07;;;;;;;12.40;5.90;;;16.70;99.90;;;;;;5018262;28;20425;-73
2023/05/29 00:43:32;;;;;;;7.67;5.43;;;16.90;99.90;;;;;;5032285;28;20276;-73
2023/05/29 00:45:58;;;;;;;8.37;5.40;;;16.60;99.90;;;;;;5032382;28;20463;-73
2023/05/29 00:48:25;;;;;;;7.60;5.50;;;16.60;99.90;;;;;;5032522;28;20175;-73
2023/05/29 00:50:51;;;;;;;7.57;6.10;;;16.40;99.90;;;;;;5031106;28;20480;-73
2023/05/29 00:53:17;;;;;;;10.27;5.70;;;16.30;99.90;;;;;;5031137;28;20414;-73
2023/05/29 00:55:43;;;;;;;10.70;6.57;;;16.40;99.90;;;;;;5032382;28;20413;-72
2023/05/29 00:58:09;;;;;;;7.47;5.63;;;16.40;99.90;;;;;;5032359;28;20199;-73
2023/05/29 01:00:35;;;;;;;7.57;5.60;;;16.40;99.90;;;;;;5032372;28;20459;-73
2023/05/29 01:03:04;;;;;;;7.30;6.30;;;16.30;99.90;;;;;;5032628;28;20445;-73
2023/05/29 01:05:32;;;;;;;7.50;6.00;;;16.40;99.90;;;;;;5032321;28;20409;-73
2023/05/29 01:07:58;;;;;;;6.83;6.00;;;16.30;99.90;;;;;;5035799;28;20406;-73
2023/05/29 01:10:24;;;;;;;6.97;5.40;;;16.20;99.90;;;;;;5018111;28;20793;-72
2023/05/29 01:13:19;;;;;;;8.03;6.00;;;16.20;99.90;;;;;;4996417;28;20195;-73
2023/05/29 01:16:03;;;;;;;6.63;5.43;;;16.30;99.90;;;;;;4996524;28;20643;-73
2023/05/29 01:18:57;;;;;;;8.87;6.40;;;16.30;99.90;;;;;;4996727;28;20940;-73
2023/05/29 01:22:05;;;;;;;10.70;6.17;;;16.30;99.90;;;;;;4996317;28;20387;-72
2023/05/29 01:24:54;;;;;;;8.07;5.47;;;16.20;99.90;;;;;;4994668;28;20532;-72
2023/05/29 01:27:24;;;;;;;8.73;6.20;;;16.20;99.90;;;;;;4996334;28;20837;-72
2023/05/29 01:29:51;;;;;;;7.10;5.90;;;16.00;99.90;;;;;;4996320;28;20799;-71
2023/05/29 01:32:17;;;;;;;7.63;6.43;;;16.00;99.90;;;;;;4996538;28;20414;-72
2023/05/29 01:34:43;;;;;;;6.57;5.80;;;15.80;99.90;;;;;;4996600;28;20449;-72
2023/05/29 01:37:08;;;;;;;5.43;4.73;;;15.90;99.90;;;;;;4996469;28;20495;-72
2023/05/29 01:39:35;;;;;;;12.67;6.10;;;15.80;99.90;;;;;;4996311;28;20254;-73
2023/05/29 01:42:01;;;;;;;6.93;5.93;;;15.80;99.90;;;;;;4994627;28;20174;-73
2023/05/29 01:44:29;;;;;;;7.90;6.30;;;15.70;99.90;;;;;;4995800;28;20538;-73
2023/05/29 01:46:55;;;;;;;6.33;5.63;;;15.60;99.90;;;;;;4995793;28;20403;-72
2023/05/29 01:49:22;;;;;;;7.50;6.73;;;15.70;99.90;;;;;;4995745;28;20429;-73
2023/05/29 01:51:48;;;;;;;6.63;5.20;;;15.70;99.90;;;;;;4995758;28;20168;-72
2023/05/29 01:54:13;;;;;;;7.23;5.33;;;15.70;99.90;;;;;;4995505;28;20491;-73
2023/05/29 01:56:39;;;;;;;10.27;5.73;;;15.70;99.90;;;;;;4995864;28;20180;-73
2023/05/29 01:59:05;;;;;;;7.90;6.07;;;15.70;99.90;;;;;;4994231;28;20226;-73
2023/05/29 02:01:32;;;;;;;6.93;5.57;;;15.70;99.90;;;;;;4995570;28;20161;-73
2023/05/29 02:03:58;;;;;;;6.57;5.40;;;15.70;99.90;;;;;;5012750;28;20454;-73
2023/05/29 02:06:23;;;;;;;7.60;5.50;;;15.70;99.90;;;;;;5015043;28;20484;-73
2023/05/29 02:08:49;;;;;;;7.70;5.70;;;15.60;99.90;;;;;;5014595;28;20196;-73
2023/05/29 02:11:14;;;;;;;7.80;6.30;;;15.60;99.90;;;;;;4999603;28;20250;-73
2023/05/29 02:13:42;;;;;;;5.83;5.27;;;15.70;99.90;;;;;;4995534;28;20174;-73
2023/05/29 02:16:08;;;;;;;6.30;5.57;;;15.60;99.90;;;;;;4995155;28;20172;-73
2023/05/29 02:18:34;;;;;;;7.43;6.13;;;15.60;99.90;;;;;;5011755;28;20875;-73
2023/05/29 02:21:00;;;;;;;7.53;5.83;;;15.50;99.90;;;;;;5014719;28;20547;-73
2023/05/29 02:23:25;;;;;;;9.30;6.37;;;15.40;99.90;;;;;;5014381;28;20442;-73
2023/05/29 02:25:51;;;;;;;9.93;6.47;;;15.30;99.90;;;;;;5005189;28;20378;-73
2023/05/29 02:28:16;;;;;;;7.20;5.50;;;15.20;99.90;;;;;;4995246;28;20587;-72
2023/05/29 02:30:42;;;;;;;6.07;4.90;;;15.20;99.90;;;;;;4994923;28;20173;-72
2023/05/29 02:33:08;;;;;;;7.33;5.50;;;15.10;99.90;;;;;;4994854;28;20196;-72
2023/05/29 02:35:34;;;;;;;7.57;5.77;;;15.10;99.90;;;;;;4994946;28;20665;-72
2023/05/29 02:38:00;;;;;;;8.07;5.20;;;15.10;99.90;;;;;;4994511;28;20411;-73
2023/05/29 02:40:25;;;;;;;8.67;5.60;;;15.00;99.90;;;;;;4994603;28;20213;-73
2023/05/29 02:42:51;;;;;;;7.10;5.67;;;15.00;99.90;;;;;;5013831;28;20547;-73
2023/05/29 02:45:17;;;;;;;7.20;6.47;;;15.10;99.90;;;;;;5034582;28;20203;-73
2023/05/29 02:47:43;;;;;;;8.63;6.40;;;15.20;99.90;;;;;;5034163;28;20651;-73
2023/05/29 02:50:09;;;;;;;8.47;7.27;;;15.00;99.90;;;;;;5033935;28;20641;-72
2023/05/29 02:52:36;;;;;;;8.17;5.40;;;14.90;99.90;;;;;;5033630;28;20667;-73
2023/05/29 02:55:02;;;;;;;8.83;5.67;;;14.90;99.90;;;;;;5033904;28;20939;-73
2023/05/29 02:57:28;;;;;;;9.13;5.60;;;14.80;99.90;;;;;;5033856;28;20409;-72
2023/05/29 02:59:54;;;;;;;6.53;5.60;;;14.70;99.90;;;;;;5033694;28;20421;-72
2023/05/29 03:02:20;;;;;;;6.77;5.67;;;14.70;99.90;;;;;;5034045;28;20165;-72
2023/05/29 03:04:46;;;;;;;10.00;7.00;;;14.70;99.90;;;;;;5033543;28;20464;-72
2023/05/29 03:07:12;;;;;;;7.33;5.83;;;14.70;99.90;;;;;;5033766;28;20216;-73
2023/05/29 03:09:38;;;;;;;6.20;5.60;;;14.70;99.90;;;;;;5028089;28;20552;-73
2023/05/29 03:12:04;;;;;;;8.70;5.83;;;14.70;99.90;;;;;;4994738;28;20433;-72
2023/05/29 03:14:30;;;;;;;7.80;5.83;;;14.80;99.90;;;;;;4994215;28;20208;-73
2023/05/29 03:16:56;;;;;;;6.50;5.90;;;14.80;99.90;;;;;;4992861;28;20500;-73
2023/05/29 03:19:21;;;;;;;9.50;6.00;;;14.70;99.90;;;;;;4994053;28;20428;-72
2023/05/29 03:21:47;;;;;;;8.60;5.90;;;14.70;99.90;;;;;;4994288;28;20426;-73
2023/05/29 03:24:16;;;;;;;8.40;6.13;;;14.70;99.90;;;;;;4993828;28;20555;-73
2023/05/29 03:26:42;;;;;;;7.87;5.63;;;14.70;99.90;;;;;;4994226;28;20239;-72
2023/05/29 03:29:07;;;;;;;7.03;5.20;;;14.70;99.90;;;;;;4993978;28;20995;-73
2023/05/29 03:31:33;;;;;;;7.20;5.07;;;14.60;99.90;;;;;;4994535;28;20406;-72
2023/05/29 03:33:59;;;;;;;5.80;5.00;;;14.60;99.90;;;;;;4994270;28;20230;-72
2023/05/29 03:36:25;;;;;;;7.03;6.30;;;14.60;99.90;;;;;;4994121;28;20179;-73
2023/05/29 03:38:50;;;;;;;7.40;5.80;;;14.50;99.90;;;;;;4993353;28;20450;-72
2023/05/29 03:41:16;;;;;;;8.47;5.90;;;14.70;99.90;;;;;;4992475;28;20255;-73
2023/05/29 03:43:42;;;;;;;6.90;5.50;;;14.70;99.90;;;;;;4993672;28;20701;-72
2023/05/29 03:46:08;;;;;;;7.53;5.50;;;14.80;99.90;;;;;;4993734;28;20707;-72
2023/05/29 03:48:33;;;;;;;10.40;6.13;;;14.70;99.90;;;;;;4993620;28;20195;-73
2023/05/29 03:50:59;;;;;;;6.20;5.43;;;14.60;99.90;;;;;;4993659;28;20173;-73
2023/05/29 03:53:24;;;;;;;8.50;5.77;;;14.60;99.90;;;;;;4993458;28;20242;-72
2023/05/29 03:55:50;;;;;;;8.10;5.20;;;14.60;99.90;;;;;;4993896;28;20177;-72
2023/05/29 03:58:15;;;;;;;9.03;6.13;;;14.60;99.90;;;;;;4993857;28;20173;-73
2023/05/29 04:00:41;;;;;;;5.90;5.30;;;14.60;99.90;;;;;;4993883;28;20201;-73
2023/05/29 04:03:07;;;;;;;8.27;5.07;;;14.60;99.90;;;;;;4993808;28;20199;-72
2023/05/29 04:05:33;;;;;;;7.70;6.00;;;14.70;99.90;;;;;;4993552;28;20170;-73
2023/05/29 04:07:58;;;;;;;6.17;4.97;;;14.70;99.90;;;;;;4993564;28;20821;-72
2023/05/29 04:10:24;;;;;;;7.83;5.93;;;14.60;99.90;;;;;;4993423;28;20679;-73
2023/05/29 04:12:51;;;;;;;6.33;5.50;;;14.60;99.90;;;;;;4993507;28;20178;-72
2023/05/29 04:15:16;;;;;;;6.80;4.70;;;14.60;99.90;;;;;;4993550;28;20542;-72
2023/05/29 04:17:42;;;;;;;8.93;6.10;;;14.70;99.90;;;;;;4993768;28;20415;-72
2023/05/29 04:20:08;;;;;;;5.73;5.20;;;14.80;99.90;;;;;;4993692;28;20274;-73
2023/05/29 04:22:38;;;;;;;6.30;4.80;;;14.90;99.90;;;;;;4991970;28;20183;-71
2023/05/29 04:25:06;;;;;;;8.93;6.07;;;15.00;99.90;;;;;;5010392;28;20804;-73
2023/05/29 04:27:32;;;;;;;7.23;5.30;;;15.00;99.90;;;;;;5012933;28;20783;-73
2023/05/29 04:29:58;;;;;;;6.10;5.50;;;15.00;99.90;;;;;;5003483;28;20433;-73
2023/05/29 04:32:24;;;;;;;7.87;6.60;;;15.00;99.90;;;;;;4993656;28;20172;-73
2023/05/29 04:34:51;;;;;;;8.70;5.67;;;15.10;99.90;;;;;;4993524;28;20778;-73
2023/05/29 04:37:17;;;;;;;6.97;6.27;;;15.10;99.90;;;;;;4993439;28;20418;-73
2023/05/29 04:39:43;;;;;;;8.37;5.23;;;15.20;99.90;;;;;;5032630;23;20476;-71
2023/05/29 04:42:08;;;;;;;6.33;5.13;;;15.20;99.90;;;;;;5035734;28;20453;-72
2023/05/29 04:44:34;;;;;;;9.17;5.83;;;15.20;99.90;;;;;;5036240;28;20452;-72
2023/05/29 04:47:02;;;;;;;9.60;6.80;;;15.20;99.90;;;;;;5036321;28;20220;-71
2023/05/29 04:49:28;;;;;;;8.60;6.57;;;15.30;99.90;;;;;;5036277;28;20221;-72
2023/05/29 04:51:54;;;;;;;10.63;7.10;;;15.40;99.90;;;;;;5035956;28;20404;-72
2023/05/29 04:54:21;;;;;;;7.30;5.97;;;15.40;99.90;;;;;;5035386;28;20177;-72
2023/05/29 04:56:47;;;;;;;7.80;6.60;;;15.50;99.90;;;;;;5036396;28;20730;-71
2023/05/29 04:59:13;;;;;;;10.57;5.90;;;15.50;99.90;;;;;;5035808;28;20511;-72
2023/05/29 05:01:39;;;;;;;6.90;5.83;;;15.60;99.90;;;;;;5035812;28;20166;-72
2023/05/29 05:04:04;;;;;;;8.80;6.60;;;15.60;99.90;;;;;;5035727;28;20180;-71
2023/05/29 05:06:30;;;;;;;8.30;6.20;;;15.70;99.90;;;;;;5036031;28;20417;-71
2023/05/29 05:08:56;;;;;;;8.80;6.27;;;15.80;99.90;;;;;;5035670;28;20186;-71
2023/05/29 05:11:23;;;;;;;7.90;5.27;;;15.90;99.90;;;;;;5019149;28;20182;-72
2023/05/29 05:13:49;;;;;;;7.40;5.47;;;16.00;99.90;;;;;;5016228;28;20182;-71
2023/05/29 05:16:14;;;;;;;7.27;5.00;;;16.00;99.90;;;;;;5015822;28;20788;-72
2023/05/29 05:18:40;;;;;;;7.03;5.33;;;16.20;99.90;;;;;;5015841;28;20417;-71
2023/05/29 05:21:06;;;;;;;7.70;5.90;;;16.20;99.90;;;;;;5000116;28;20642;-72
2023/05/29 05:23:32;;;;;;;8.80;5.77;;;16.30;99.90;;;;;;5015633;28;20198;-72
2023/05/29 05:25:58;;;;;;;6.33;5.37;;;16.40;99.90;;;;;;5016033;28;20261;-72
2023/05/29 05:28:23;;;;;;;7.80;5.43;;;16.60;99.90;;;;;;5017167;28;20902;-72
2023/05/29 05:30:49;;;;;;;9.43;6.60;;;16.70;99.90;;;;;;5016235;28;20184;-70
2023/05/29 05:33:15;;;;;;;8.30;5.70;;;16.70;99.90;;;;;;5015517;28;20691;-72
2023/05/29 05:35:40;;;;;;;9.07;6.60;;;16.90;99.90;;;;;;5015990;28;20217;-72
2023/05/29 05:38:06;;;;;;;8.33;5.90;;;17.00;99.90;;;;;;4997630;28;20185;-72
2023/05/29 05:40:32;;;;;;;8.20;5.80;;;17.10;99.90;;;;;;5015180;28;20298;-72
2023/05/29 05:42:58;;;;;;;6.40;5.80;;;17.20;99.90;;;;;;5015583;28;20188;-72
2023/05/29 05:45:23;;;;;;;7.70;6.10;;;17.30;99.90;;;;;;5015574;28;20780;-71
2023/05/29 05:47:49;;;;;;;8.33;5.97;;;17.40;99.90;;;;;;5015178;28;20160;-71
2023/05/29 05:50:15;;;;;;;7.93;5.93;;;17.50;99.90;;;;;;5015206;28;20785;-71
2023/05/29 05:52:41;;;;;;;6.70;5.50;;;17.50;99.90;;;;;;5015148;28;20176;-72
2023/05/29 05:55:07;;;;;;;7.77;5.87;;;17.70;99.90;;;;;;5014878;28;20403;-71
2023/05/29 05:57:33;;;;;;;8.13;5.70;;;17.80;99.90;;;;;;5015318;28;20175;-71
2023/05/29 06:00:00;;;;;;;6.23;5.63;;;17.90;99.90;;;;;;5015710;28;20414;-72
2023/05/29 06:02:25;;;;;;;7.63;5.47;;;18.00;99.90;;;;;;4997484;28;20442;-72
2023/05/29 06:04:51;;;;;;;9.87;5.70;;;18.00;99.90;;;;;;5014597;28;20869;-72
2023/05/29 06:07:17;;;;;;;8.27;5.40;;;18.10;99.90;;;;;;5014618;28;20399;-72
2023/05/29 06:09:43;;;;;;;9.97;5.60;;;18.20;99.90;;;;;;5014522;28;20199;-71
2023/05/29 06:12:09;;;;;;;8.57;6.40;;;18.30;99.90;;;;;;5014830;28;20164;-71
2023/05/29 06:14:35;;;;;;;7.50;6.13;;;18.10;99.90;;;;;;5014838;28;20411;-71
2023/05/29 06:17:01;;;;;;;7.90;6.10;;;18.10;99.90;;;;;;5014961;28;20172;-71
2023/05/29 06:19:27;;;;;;;7.90;5.23;;;17.90;99.90;;;;;;5016847;28;20192;-71
2023/05/29 06:21:52;;;;;;;6.63;5.63;;;17.50;99.90;;;;;;5034549;28;20442;-70
2023/05/29 06:24:18;;;;;;;6.77;5.60;;;17.30;99.90;;;;;;5032935;28;20516;-70
2023/05/29 06:26:44;;;;;;;8.47;6.43;;;17.40;99.90;;;;;;5032899;28;20168;-71
2023/05/29 06:29:09;;;;;;;6.83;5.63;;;17.60;99.90;;;;;;4996878;28;20214;-72
2023/05/29 06:31:35;;;;;;;7.93;5.70;;;17.80;99.90;;;;;;4999182;28;20164;-71
2023/05/29 06:34:00;;;;;;;6.73;5.60;;;17.80;99.90;;;;;;5014489;28;20164;-72
2023/05/29 06:36:26;;;;;;;8.20;5.20;;;17.70;99.90;;;;;;5014426;28;20175;-71
2023/05/29 06:38:52;;;;;;;6.90;6.20;;;17.50;99.90;;;;;;5014197;28;20188;-72
2023/05/29 06:41:18;;;;;;;6.23;5.00;;;17.50;99.90;;;;;;5030594;28;20704;-72
2023/05/29 06:43:43;;;;;;;8.80;5.23;;;17.70;99.90;;;;;;5033665;28;20442;-73
2023/05/29 06:46:10;;;;;;;7.70;6.17;;;18.00;99.90;;;;;;5032697;28;20705;-72
2023/05/29 06:48:36;;;;;;;7.53;4.80;;;18.10;99.90;;;;;;5032514;28;20171;-72
2023/05/29 06:51:11;;;;;;;6.20;5.60;;;18.30;99.90;;;;;;5033103;28;20497;-72
2023/05/29 06:53:40;;;;;;;6.90;6.13;;;18.30;99.90;;;;;;5033907;28;20653;-72
2023/05/29 06:56:06;;;;;;;7.53;5.90;;;18.10;99.90;;;;;;5033724;28;20406;-71
2023/05/29 06:58:33;;;;;;;5.70;4.70;;;18.00;99.90;;;;;;5033574;28;20493;-72
2023/05/29 07:00:59;;;;;;;8.37;5.90;;;18.20;99.90;;;;;;5032323;28;20410;-72
2023/05/29 07:03:28;;;;;;;10.00;7.33;;;18.30;99.90;;;;;;5033039;28;20446;-71
2023/05/29 07:05:54;;;;;;;8.10;5.60;;;18.40;99.90;;;;;;5034087;28;20759;-71
2023/05/29 07:08:20;;;;;;;7.20;5.20;;;18.40;99.90;;;;;;5033228;28;20432;-72
2023/05/29 07:10:45;;;;;;;6.50;5.87;;;18.50;99.90;;;;;;5021451;28;20246;-71
2023/05/29 07:13:15;;;;;;;7.43;5.47;;;18.30;99.90;;;;;;5014364;28;20180;-71
2023/05/29 07:15:40;;;;;;;6.00;4.87;;;18.30;99.90;;;;;;4995989;28;20179;-72
2023/05/29 07:18:06;;;;;;;6.30;5.57;;;18.70;99.90;;;;;;5013656;28;20905;-71
2023/05/29 07:20:31;;;;;;;8.93;5.70;;;18.70;99.90;;;;;;5013874;28;20665;-71
2023/05/29 07:22:57;;;;;;;6.90;5.83;;;18.80;99.90;;;;;;5013829;28;20729;-72
2023/05/29 07:25:22;;;;;;;6.10;5.33;;;18.90;99.90;;;;;;5014094;28;20540;-71
2023/05/29 07:27:48;;;;;;;7.40;6.70;;;19.00;99.90;;;;;;4996287;28;20646;-72
2023/05/29 07:30:14;;;;;;;8.73;6.00;;;19.00;99.90;;;;;;5013304;28;20188;-72
2023/05/29 07:32:40;;;;;;;7.80;5.70;;;18.90;99.90;;;;;;5013309;28;20641;-72
2023/05/29 07:35:06;;;;;;;10.80;6.10;;;19.00;99.90;;;;;;5013898;28;20403;-72
2023/05/29 07:37:31;;;;;;;8.07;5.40;;;19.30;99.90;;;;;;5015471;28;20255;-72
2023/05/29 07:39:57;;;;;;;11.10;5.90;;;19.00;99.90;;;;;;4995968;28;20925;-73
2023/05/29 07:42:23;;;;;;;7.37;6.00;;;19.00;99.90;;;;;;5014633;28;20212;-72
2023/05/29 07:44:48;;;;;;;6.57;5.80;;;18.90;99.90;;;;;;5014895;28;20670;-71
2023/05/29 07:47:14;;;;;;;9.20;5.80;;;19.10;99.90;;;;;;5014221;28;20156;-71
2023/05/29 07:49:40;;;;;;;9.50;6.47;;;19.40;99.90;;;;;;5013708;28;20186;-70
2023/05/29 07:52:06;;;;;;;6.80;5.80;;;19.70;99.90;;;;;;5013350;28;20921;-71
2023/05/29 07:54:32;;;;;;;5.50;5.00;;;19.70;99.90;;;;;;5013812;28;20168;-71
2023/05/29 07:57:28;;;;;;;7.30;5.27;;;19.70;99.90;;;;;;5016325;28;20563;-72
2023/05/29 07:59:54;;;;;;;6.30;5.70;;;19.70;99.90;;;;;;4991078;28;20439;-72
2023/05/29 08:02:20;;;;;;;9.73;5.20;;;19.80;99.90;;;;;;5013374;28;20407;-71
2023/05/29 08:04:46;;;;;;;5.70;4.77;;;19.90;99.30;;;;;;5013129;28;20474;-72
2023/05/29 08:07:12;;;;;;;6.57;5.53;;;19.90;99.30;;;;;;5013027;28;20918;-71
2023/05/29 08:09:38;;;;;;;7.10;5.60;;;19.70;99.10;;;;;;5012667;28;20180;-73
2023/05/29 08:12:05;;;;;;;6.53;5.30;;;20.10;98.60;;;;;;5011694;28;20409;-72
2023/05/29 08:14:31;;;;;;;7.27;5.87;;;20.30;98.50;;;;;;5013150;28;20160;-72
2023/05/29 08:16:56;;;;;;;5.00;4.50;;;20.40;97.70;;;;;;5017457;28;20493;-71
2023/05/29 08:19:23;;;;;;;7.70;6.90;;;20.50;98.00;;;;;;5034557;28;20207;-71
2023/05/29 08:21:48;;;;;;;6.53;5.40;;;20.70;97.60;;;;;;5037226;28;20221;-72
2023/05/29 08:24:14;;;;;;;6.17;5.57;;;20.80;96.80;;;;;;5042582;28;20458;-73
2023/05/29 08:26:39;;;;;;;8.37;5.20;;;20.80;97.00;;;;;;5032496;28;20255;-72
2023/05/29 08:29:05;;;;;;;6.87;5.13;;;20.80;96.90;;;;;;5026752;28;20199;-73
2023/05/29 08:31:31;;;;;;;9.37;5.17;;;20.90;96.90;;;;;;5025923;28;20243;-72
2023/05/29 08:33:57;;;;;;;6.70;5.50;;;20.80;96.90;;;;;;5024438;28;20445;-74
2023/05/29 08:36:22;;;;;;;8.37;6.27;;;21.00;97.20;;;;;;5025075;28;20441;-75
2023/05/29 08:38:49;;;;;;;6.40;4.97;;;21.10;96.20;;;;;;5023632;28;20172;-74
2023/05/29 08:41:22;;;;;;;6.83;5.60;;;21.30;95.90;;;;;;5041127;28;20262;-74
2023/05/29 08:43:50;;;;;;;6.50;5.83;;;21.30;95.60;;;;;;5046400;28;20434;-74
2023/05/29 08:46:19;;;;;;;5.57;4.50;;;21.30;95.80;;;;;;5044694;28;20493;-71
2023/05/29 08:48:49;;;;;;;7.93;6.13;;;21.00;96.30;;;;;;5041366;28;20489;-73
2023/05/29 08:51:19;;;;;;;6.90;5.90;;;21.00;96.30;;;;;;5036290;28;20409;-73
2023/05/29 08:53:46;;;;;;;7.87;5.67;;;21.10;96.60;;;;;;5036901;28;20469;-72
2023/05/29 08:56:11;;;;;;;9.10;5.97;;;21.30;96.90;;;;;;5037027;28;20461;-72
2023/05/29 08:58:38;;;;;;;8.83;5.67;;;21.60;97.40;;;;;;5035985;28;20405;-72
2023/05/29 09:01:04;;;;;;;6.60;5.90;;;21.80;96.40;;;;;;5035912;28;20263;-72
2023/05/29 09:03:30;;;;;;;6.60;5.30;;;21.90;96.00;;;;;;5035658;28;20437;-71
2023/05/29 09:06:00;;;;;;;9.07;5.00;;;21.90;95.80;;;;;;5036026;28;20406;-72
2023/05/29 09:08:26;;;;;;;8.37;4.67;;;21.70;96.40;;;;;;5035970;28;20501;-72
2023/05/29 09:10:52;;;;;;;8.90;5.70;;;21.70;96.50;;;;;;5035629;28;20465;-71
2023/05/29 09:13:17;;;;;;;7.80;5.90;;;21.80;96.60;;;;;;5018260;28;20930;-72
2023/05/29 09:15:43;;;;;;;7.53;5.63;;;21.60;96.80;;;;;;5035795;28;20168;-72
2023/05/29 09:18:09;;;;;;;5.43;4.60;;;21.60;97.10;;;;;;5018452;28;20270;-72
2023/05/29 09:20:34;;;;;;;7.30;5.40;;;21.80;96.70;;;;;;5017924;28;20278;-72
2023/05/29 09:23:02;;;;;;;6.33;5.67;;;22.00;96.60;;;;;;5035773;28;20255;-70
2023/05/29 09:25:33;;;;;;;9.00;6.10;;;22.00;96.70;;;;;;5035454;28;20160;-71
2023/05/29 09:28:07;;;;;;;8.90;6.03;;;22.00;96.60;;;;;;5035020;28;20389;-71
2023/05/29 09:30:39;;;;;;;9.03;5.60;;;22.10;97.10;;;;;;5035440;28;20432;-71
2023/05/29 09:33:12;;;;;;;5.27;4.60;;;22.40;96.40;;;;;;5035712;28;20433;-72
2023/05/29 09:35:49;;;;;;;7.93;5.80;;;22.20;96.60;;;;;;5035364;28;20766;-72
2023/05/29 09:38:20;;;;;;;6.53;5.83;;;22.50;96.90;;;;;;5035385;28;20501;-72
2023/05/29 09:40:46;;;;;;;8.63;5.67;;;22.50;95.90;;;;;;5034934;28;20454;-72
2023/05/29 09:43:14;;;;;;;6.83;5.57;;;22.50;96.10;;;;;;5035328;28;20460;-71
2023/05/29 09:45:50;;;;;;;6.00;5.40;;;22.60;95.40;;;;;;5035137;28;20988;-72
2023/05/29 09:48:22;;;;;;;10.90;6.37;;;22.70;95.10;;;;;;5035477;28;20406;-72
2023/05/29 09:50:48;;;;;;;6.60;5.53;;;22.90;95.20;;;;;;5035131;28;20427;-72
2023/05/29 09:53:23;;;;;;;5.20;4.70;;;23.20;94.80;;;;;;5035464;28;20475;-72
2023/05/29 09:55:54;;;;;;;7.03;4.77;;;23.50;94.70;;;;;;5035157;28;20531;-72
2023/05/29 09:58:21;;;;;;;6.67;5.67;;;23.30;94.00;;;;;;5017198;28;20864;-72
2023/05/29 10:00:48;;;;;;;9.13;5.70;;;23.30;94.00;;;;;;5034390;28;20448;-72
2023/05/29 10:03:14;;;;;;;7.23;4.57;;;23.40;94.00;;;;;;5034775;28;20544;-71
2023/05/29 10:05:40;;;;;;;6.17;5.57;;;23.50;93.60;;;;;;5035556;28;20877;-73
2023/05/29 10:08:14;;;;;;;6.10;5.50;;;23.50;92.70;;;;;;5034743;28;20405;-72
2023/05/29 10:10:52;;;;;;;6.53;4.80;;;23.50;93.40;;;;;;5034158;28;20528;-72
2023/05/29 10:13:18;;;;;;;5.50;5.00;;;23.60;92.50;;;;;;5017385;28;20512;-72
2023/05/29 10:15:45;;;;;;;5.70;5.10;;;23.70;92.50;;;;;;5034522;28;20446;-73
2023/05/29 10:18:22;;;;;;;5.53;4.97;;;23.70;92.50;;;;;;5034734;28;20460;-72
2023/05/29 10:20:55;;;;;;;6.40;5.20;;;23.80;91.30;;;;;;5034514;28;20784;-73
2023/05/29 10:23:25;;;;;;;5.37;4.87;;;24.00;91.30;;;;;;5034863;28;20446;-73
2023/05/29 10:26:04;;;;;;;6.97;4.33;;;24.30;90.20;;;;;;5034187;28;20410;-72
2023/05/29 10:28:30;;;;;;;6.37;4.80;;;24.30;90.00;;;;;;5032651;28;20409;-72
2023/05/29 10:31:05;;;;;;;6.03;4.80;;;24.50;89.00;;;;;;5034038;28;20429;-72
2023/05/29 10:33:46;;;;;;;6.30;5.00;;;24.60;87.80;;;;;;5034458;28;20485;-73
2023/05/29 10:36:18;;;;;;;8.27;5.23;;;24.50;85.30;;;;;;5034442;28;20421;-73
2023/05/29 10:38:46;;;;;;;7.17;4.17;;;24.60;83.90;;;;;;5033087;28;20407;-73
2023/05/29 10:41:29;;;;;;;5.33;4.43;;;24.80;83.50;;;;;;5069757;23;20493;-73
2023/05/29 10:43:58;;;;;;;6.57;4.67;;;24.80;83.30;;;;;;5014677;28;20473;-74
2023/05/29 10:46:42;;;;;;;6.20;4.67;;;25.20;81.60;;;;;;5014370;28;20395;-75
2023/05/29 10:49:20;;;;;;;5.40;4.03;;;25.00;79.50;;;;;;5013978;28;20403;-74
2023/05/29 10:51:46;;;;;;;6.43;4.37;;;25.10;79.50;;;;;;4994625;28;20388;-73
2023/05/29 10:54:13;;;;;;;6.53;4.30;;;25.20;79.60;;;;;;4977096;28;20415;-74
2023/05/29 10:56:40;;;;;;;5.70;4.53;;;25.60;78.30;;;;;;4994478;28;20404;-75
2023/05/29 10:59:18;;;;;;;7.23;5.10;;;25.30;77.00;;;;;;5111048;27;20598;-74
2023/05/29 11:01:43;;;;;;;4.03;3.63;;;25.50;78.20;;;;;;5110873;28;20486;-75
2023/05/29 11:04:15;;;;;;;7.40;4.67;;;25.70;76.60;;;;;;5110754;28;20493;-75
2023/05/29 11:06:41;;;;;;;4.87;4.23;;;25.70;75.90;;;;;;5111170;28;20165;-75
2023/05/29 11:09:30;;;;;;;6.07;4.57;;;25.60;77.60;;;;;;5110428;28;20448;-75
2023/05/29 11:12:35;;;;;;;5.87;5.10;;;25.70;74.70;;;;;;5089472;28;20760;-75
2023/05/29 11:15:05;;;;;;;5.23;4.50;;;25.40;74.70;;;;;;5090535;28;20388;-74
2023/05/29 11:17:37;;;;;;;5.90;4.30;;;25.60;74.70;;;;;;5090122;28;20449;-75
2023/05/29 11:20:08;;;;;;;4.63;4.10;;;25.60;73.60;;;;;;5090070;28;20468;-75
2023/05/29 11:22:48;;;;;;;4.40;4.00;;;25.70;73.70;;;;;;5090436;28;20368;-75
2023/05/29 11:25:15;;;;;;;4.80;4.23;;;26.00;72.70;;;;;;5089900;28;20400;-75
2023/05/29 11:27:42;;;;;;;4.80;3.73;;;27.10;70.20;;;;;;5090097;28;20403;-75
2023/05/29 11:30:08;;;;;;;5.17;4.33;;;28.50;68.80;;;;;;5090039;28;20434;-75
2023/05/29 11:32:36;;;;;;;4.47;3.50;;;29.00;63.20;;;;;;5090029;28;20408;-75
2023/05/29 11:35:08;;;;;;;6.47;4.20;;;30.30;60.80;;;;;;5090291;28;20407;-75
2023/05/29 11:37:34;;;;;;;4.40;4.00;;;31.70;56.60;;;;;;5091273;28;20782;-76
2023/05/29 11:40:03;;;;;;;7.07;3.77;;;30.80;54.80;;;;;;5093267;28;20427;-75
2023/05/29 11:42:29;;;;;;;6.53;4.10;;;30.60;54.70;;;;;;5090861;28;20392;-74
2023/05/29 11:44:54;;;;;;;4.43;3.80;;;29.70;55.00;;;;;;5090745;28;20967;-74
2023/05/29 11:47:22;;;;;;;6.27;4.50;;;29.80;55.70;;;;;;5092122;28;20165;-75
2023/05/29 11:49:49;;;;;;;5.50;3.90;;;30.60;54.00;;;;;;5090489;28;20181;-75
2023/05/29 11:52:14;;;;;;;6.13;4.20;;;31.10;52.80;;;;;;5102544;28;20461;-75
2023/05/29 11:54:47;;;;;;;7.00;4.13;;;30.40;52.00;;;;;;5109844;28;20411;-75
2023/05/29 11:57:18;;;;;;;4.90;3.60;;;30.50;51.90;;;;;;5110108;28;20197;-75
2023/05/29 11:59:44;;;;;;;7.20;4.60;;;30.30;50.80;;;;;;5109719;28;20422;-75
2023/05/29 12:02:11;;;;;;;4.67;4.27;;;31.20;49.40;;;;;;5109817;28;21031;-75
2023/05/29 12:04:36;;;;;;;5.20;3.80;;;31.20;48.20;;;;;;5109745;28;20157;-75
2023/05/29 12:07:16;;;;;;;4.43;4.03;;;31.10;48.20;;;;;;5110277;28;20403;-74
2023/05/29 12:09:42;;;;;;;6.10;3.90;;;30.80;48.30;;;;;;5097348;28;20200;-76
2023/05/29 12:12:07;;;;;;;5.33;3.97;;;31.30;49.10;;;;;;5075649;28;20903;-75
2023/05/29 12:14:33;;;;;;;4.43;3.57;;;31.50;46.30;;;;;;5075582;28;20696;-76
2023/05/29 12:16:59;;;;;;;6.10;4.00;;;31.60;45.70;;;;;;5075399;28;20249;-75
2023/05/29 12:19:24;;;;;;;4.50;3.97;;;30.90;46.80;;;;;;5075438;28;20188;-75
2023/05/29 12:21:51;;;;;;;4.93;3.90;;;31.30;46.60;;;;;;5075989;28;20169;-74
2023/05/29 12:24:19;;;;;;;4.00;3.60;;;30.60;46.00;;;;;;5075975;28;20166;-76
2023/05/29 12:26:47;;;;;;;5.63;3.90;;;30.40;46.80;;;;;;5075390;28;20454;-76
2023/05/29 12:29:12;;;;;;;4.77;3.93;;;31.30;46.60;;;;;;5075256;28;20976;-75
2023/05/29 12:31:39;;;;;;;5.80;4.10;;;31.60;45.80;;;;;;5075505;28;20400;-76
2023/05/29 12:34:09;;;;;;;5.63;3.90;;;32.40;44.40;;;;;;5083807;28;20215;-76
2023/05/29 12:36:35;;;;;;;4.20;3.63;;;31.60;42.90;;;;;;5094819;28;20407;-75
2023/05/29 12:39:08;;;;;;;4.70;4.00;;;32.40;43.10;;;;;;5095609;28;20458;-75
2023/05/29 12:41:34;;;;;;;6.27;4.20;;;33.20;41.50;;;;;;5076334;28;20170;-76
2023/05/29 12:44:02;;;;;;;4.10;3.70;;;33.70;41.60;;;;;;5075524;28;20484;-76
2023/05/29 12:46:35;;;;;;;3.80;3.40;;;33.00;41.00;;;;;;5075123;28;20397;-76
2023/05/29 12:49:15;;;;;;;4.00;3.20;;;33.20;40.30;;;;;;5075319;28;20394;-76